Terminal Aerodrome Forecast
Issued by NWS

Home | Current Version | Previous Version | Text Only | Print | Product List | Glossary Off
Versions: 1 2 3 4 5 6 7 8 9 10 11 12 13 14 15 16 17

589
FTUS43 KABR 202322
TAFATY
TAF
KATY 202322Z 2100/2124 17022G29KT P6SM BKN250
     FM211100 19013G21KT P6SM BKN025
     FM211500 25013KT P6SM BKN025
     FM211600 26014G21KT P6SM BKN040=

USA.gov is the U.S. government's official web portal to all federal, state and local government web resources and services.